DAUO/ELU METAR and TAF weather

Enter ICAO airport designator
Station Type Date Time Source
DAUO METAR 2021/04/17 02:00 UTC NOAA

DAUO 170200Z 03010KT 9999 FEW033 SCT100 16/11 Q1009


Station Type Date Time Source
DAUO Decoded METAR 2021/04/17 02:00 UTC NOAA

El Oued, Algeria (DAUO) 33-30N 006-07E 63M
Apr 16, 2021 - 10:00 PM EDT / 2021.04.17 0200 UTC
Wind: from the NNE (030 degrees) at 12 MPH (10 KT):0
Visibility: greater than 7 mile(s):0
Sky conditions: partly cloudy
Temperature: 60 F (16 C)
Dew Point: 51 F (11 C)
Relative Humidity: 72%
Pressure (altimeter): 29.80 in. Hg (1009 hPa)
ob: DAUO 170200Z 03010KT 9999 FEW033 SCT100 16/11 Q1009
cycle: 2

Station Type Date Time Source
DAUO TAF 2017/11/09 18:03 UTC NOAA

TAF DAUO 091700Z 0918/1009 28010KT 9999 SCT033 SCT100 PROB30
TEMPO 0918/0924 28015G25KT 5000 -TSRA FEW036CB

Example: see airport list